createdAt,value
2022-12-03T00:00:44.921Z,84.99
2022-12-03T00:03:13.329Z,85.13
2022-12-03T00:05:48.538Z,85.29
2022-12-03T00:08:18.888Z,85.45
2022-12-03T00:10:47.180Z,85.16
2022-12-03T00:13:17.016Z,85.30
2022-12-03T00:15:45.296Z,85.17
2022-12-03T00:18:13.671Z,85.13
2022-12-03T00:20:41.869Z,84.40
2022-12-03T00:23:10.072Z,84.91
2022-12-03T00:25:39.799Z,85.09
2022-12-03T00:28:08.120Z,85.06
2022-12-03T00:30:36.340Z,85.13
2022-12-03T00:33:04.795Z,84.27
2022-12-03T00:35:33.081Z,84.50
2022-12-03T00:38:01.532Z,84.43
2022-12-03T00:40:29.902Z,84.67
2022-12-03T00:42:59.460Z,85.42
2022-12-03T00:45:27.764Z,84.27
2022-12-03T00:47:56.101Z,84.32
2022-12-03T00:50:24.351Z,83.99
2022-12-03T00:52:52.644Z,84.84
2022-12-03T00:55:20.883Z,85.20
2022-12-03T00:57:49.009Z,84.68
2022-12-03T01:00:19.080Z,84.99
2022-12-03T01:02:47.428Z,84.34
2022-12-03T01:05:15.692Z,84.30
2022-12-03T01:07:43.992Z,84.58
2022-12-03T01:10:13.921Z,84.40
2022-12-03T01:12:42.293Z,84.00
2022-12-03T01:15:11.544Z,83.93
2022-12-03T01:17:41.250Z,84.77
2022-12-03T01:20:10.857Z,85.28
2022-12-03T01:22:39.193Z,84.39
2022-12-03T01:25:08.130Z,84.74
2022-12-03T01:27:36.294Z,84.82
2022-12-03T01:30:05.626Z,84.56
2022-12-03T01:32:33.203Z,84.56
2022-12-03T01:35:02.916Z,84.25
2022-12-03T01:37:32.385Z,84.56
2022-12-03T01:40:00.559Z,84.51
2022-12-03T01:42:31.632Z,84.71
2022-12-03T01:45:00.930Z,84.55
2022-12-03T01:47:33.913Z,84.99
2022-12-03T01:50:06.374Z,85.04
2022-12-03T01:52:37.889Z,85.05
2022-12-03T01:55:08.447Z,84.90
2022-12-03T01:57:42.389Z,85.02
2022-12-03T02:00:15.326Z,84.86
2022-12-03T02:02:43.604Z,84.72
2022-12-03T02:05:20.015Z,84.83
2022-12-03T02:07:48.329Z,85.34
2022-12-03T02:10:18.244Z,84.79
2022-12-03T02:12:49.665Z,84.90
2022-12-03T02:15:17.879Z,84.81
2022-12-03T02:17:46.151Z,84.48
2022-12-03T02:20:14.886Z,84.78
2022-12-03T02:22:49.643Z,85.20
2022-12-03T02:25:21.139Z,84.89
2022-12-03T02:27:50.180Z,84.80
2022-12-03T02:30:20.541Z,84.47
2022-12-03T02:32:49.223Z,84.66
2022-12-03T02:35:18.307Z,84.87
2022-12-03T02:37:47.936Z,84.90
2022-12-03T02:40:21.994Z,85.15
2022-12-03T02:42:51.288Z,85.26
2022-12-03T02:45:21.813Z,84.97
2022-12-03T02:47:52.396Z,84.87
2022-12-03T02:50:23.820Z,84.58
2022-12-03T02:52:52.744Z,84.49
2022-12-03T02:55:22.829Z,85.19
2022-12-03T02:57:51.866Z,84.71
2022-12-03T03:00:21.068Z,85.17
2022-12-03T03:02:49.787Z,84.52
2022-12-03T03:05:20.876Z,84.25
2022-12-03T03:07:49.491Z,84.41
2022-12-03T03:10:20.356Z,84.93
2022-12-03T03:12:52.971Z,84.98
2022-12-03T03:15:21.721Z,84.92
2022-12-03T03:17:49.968Z,85.64
2022-12-03T03:20:18.634Z,85.22
2022-12-03T03:22:46.994Z,85.45
2022-12-03T03:25:17.640Z,85.00
2022-12-03T03:27:46.497Z,85.25
2022-12-03T03:30:16.488Z,85.18
2022-12-03T03:32:44.766Z,85.23
2022-12-03T03:35:14.900Z,85.33
2022-12-03T03:37:43.541Z,85.24
2022-12-03T03:40:12.430Z,85.60
2022-12-03T03:42:41.150Z,85.36
2022-12-03T03:45:11.024Z,85.56
2022-12-03T03:47:41.591Z,85.17
2022-12-03T03:50:11.908Z,85.36
2022-12-03T03:52:41.465Z,86.25
2022-12-03T03:55:11.133Z,85.56
2022-12-03T03:57:39.656Z,85.58
2022-12-03T04:00:09.671Z,85.55
2022-12-03T04:02:38.644Z,84.90
2022-12-03T04:05:11.596Z,85.09
2022-12-03T04:07:39.827Z,85.23
2022-12-03T04:10:38.024Z,85.41
2022-12-03T04:13:05.810Z,85.54
2022-12-03T04:15:34.552Z,86.41
2022-12-03T04:18:21.010Z,86.29
2022-12-03T04:20:50.531Z,85.95
2022-12-03T04:23:17.714Z,85.86
2022-12-03T04:25:59.779Z,85.94
2022-12-03T04:28:45.222Z,85.99
2022-12-03T04:31:30.781Z,86.30
2022-12-03T04:34:18.564Z,86.33
2022-12-03T04:36:48.463Z,86.24
2022-12-03T04:39:16.858Z,86.69
2022-12-03T04:41:45.040Z,86.12
2022-12-03T04:44:30.507Z,85.83
2022-12-03T04:46:59.032Z,86.14
2022-12-03T04:49:27.746Z,85.92
2022-12-03T04:51:57.520Z,86.87
2022-12-03T04:54:25.800Z,87.43
2022-12-03T04:56:54.063Z,87.01
2022-12-03T04:59:22.351Z,86.76
2022-12-03T05:01:50.570Z,86.79
2022-12-03T05:04:18.825Z,87.06
2022-12-03T05:06:47.278Z,87.77
2022-12-03T05:09:17.043Z,86.67
2022-12-03T05:11:45.217Z,87.33
2022-12-03T05:14:13.776Z,87.75
2022-12-03T05:16:42.025Z,87.68
2022-12-03T05:19:10.757Z,87.92
2022-12-03T05:21:38.605Z,87.92
2022-12-03T05:24:07.497Z,87.86
2022-12-03T05:26:37.113Z,88.20
2022-12-03T05:29:05.840Z,87.66
2022-12-03T05:31:34.035Z,88.27
2022-12-03T05:34:02.185Z,89.01
2022-12-03T05:36:30.444Z,89.43
2022-12-03T05:38:58.630Z,88.87
2022-12-03T05:41:44.179Z,89.34
2022-12-03T05:44:18.836Z,90.16
2022-12-03T05:46:48.701Z,90.66
2022-12-03T05:49:17.398Z,90.09
2022-12-03T05:51:46.185Z,90.16
2022-12-03T05:54:14.540Z,92.09
2022-12-03T05:56:43.010Z,91.85
2022-12-03T05:59:11.296Z,92.10
2022-12-03T06:01:41.066Z,92.02
2022-12-03T06:04:09.284Z,92.30
2022-12-03T06:06:37.534Z,93.15
2022-12-03T06:09:06.078Z,93.50
2022-12-03T06:11:37.076Z,92.86
2022-12-03T06:14:05.292Z,92.71
2022-12-03T06:16:33.679Z,92.60
2022-12-03T06:19:03.493Z,91.79
2022-12-03T06:21:31.941Z,92.02
2022-12-03T06:24:01.480Z,91.96
2022-12-03T06:26:30.220Z,91.92
2022-12-03T06:28:58.496Z,90.51
2022-12-03T06:31:26.804Z,90.79
2022-12-03T06:33:55.027Z,90.96
2022-12-03T06:36:26.220Z,90.37
2022-12-03T06:38:54.516Z,90.52
2022-12-03T06:41:22.707Z,90.03
2022-12-03T06:43:50.933Z,90.08
2022-12-03T06:46:19.340Z,89.56
2022-12-03T06:48:47.512Z,89.58
2022-12-03T06:51:15.762Z,89.70
2022-12-03T06:53:45.552Z,89.35
2022-12-03T06:56:14.320Z,89.23
2022-12-03T06:58:42.522Z,89.28
2022-12-03T07:01:10.890Z,88.52
2022-12-03T07:03:39.124Z,88.60
2022-12-03T07:06:07.773Z,88.43
2022-12-03T07:08:36.784Z,88.52
2022-12-03T07:11:26.626Z,88.10
2022-12-03T07:13:56.232Z,87.86
2022-12-03T07:16:26.273Z,88.23
2022-12-03T07:18:54.848Z,87.80
2022-12-03T07:21:23.066Z,87.60
2022-12-03T07:23:51.789Z,87.71
2022-12-03T07:26:22.160Z,87.88
2022-12-03T07:28:50.427Z,87.25
2022-12-03T07:31:18.799Z,86.90
2022-12-03T07:33:47.116Z,86.40
2022-12-03T07:36:15.319Z,86.57
2022-12-03T07:38:43.583Z,86.49
2022-12-03T07:41:11.879Z,85.70
2022-12-03T07:43:41.513Z,85.81
2022-12-03T07:46:09.777Z,85.93
2022-12-03T07:48:38.119Z,85.92
2022-12-03T07:51:06.506Z,86.03
2022-12-03T07:53:36.291Z,85.87
2022-12-03T07:56:04.982Z,85.86
2022-12-03T07:58:33.500Z,86.34
2022-12-03T08:01:03.295Z,86.13
2022-12-03T08:03:31.812Z,86.25
2022-12-03T08:06:00.169Z,86.08
2022-12-03T08:08:28.486Z,85.28
2022-12-03T08:10:56.773Z,83.34
2022-12-03T08:13:25.108Z,82.72
2022-12-03T08:15:53.549Z,81.83
2022-12-03T08:18:23.616Z,82.96
2022-12-03T08:20:52.781Z,84.87
2022-12-03T08:23:22.143Z,85.20
2022-12-03T08:25:51.631Z,85.51
2022-12-03T08:28:21.691Z,86.38
2022-12-03T08:31:01.097Z,84.88
2022-12-03T08:33:33.769Z,85.67
2022-12-03T08:36:03.496Z,86.27
2022-12-03T08:38:31.811Z,85.99
2022-12-03T08:41:00.221Z,86.24
2022-12-03T08:43:29.835Z,86.17
2022-12-03T08:45:58.834Z,86.67
2022-12-03T08:48:32.694Z,86.66
2022-12-03T08:51:03.310Z,86.99
2022-12-03T08:53:36.407Z,86.60
2022-12-03T08:56:07.145Z,86.16
2022-12-03T08:58:39.383Z,85.57
2022-12-03T09:01:34.441Z,85.86
2022-12-03T09:04:24.500Z,86.36
2022-12-03T09:06:53.404Z,85.78
2022-12-03T09:09:22.081Z,85.26
2022-12-03T09:11:51.232Z,85.37
2022-12-03T09:14:21.364Z,85.71
2022-12-03T09:16:50.383Z,85.63
2022-12-03T09:19:18.763Z,85.72
2022-12-03T09:21:48.356Z,86.26
2022-12-03T09:24:16.501Z,85.69
2022-12-03T09:26:44.865Z,85.53
2022-12-03T09:29:13.566Z,85.34
2022-12-03T09:31:42.675Z,85.40
2022-12-03T09:34:11.037Z,85.99
2022-12-03T09:36:39.362Z,86.24
2022-12-03T09:39:09.034Z,86.51
2022-12-03T09:41:37.548Z,86.57
2022-12-03T09:44:08.545Z,86.08
2022-12-03T09:46:40.666Z,85.55
2022-12-03T09:49:15.318Z,85.96
2022-12-03T09:51:45.603Z,85.93
2022-12-03T09:54:21.092Z,85.26
2022-12-03T09:56:49.437Z,85.37
2022-12-03T09:59:18.892Z,86.09
2022-12-03T10:01:47.321Z,85.34
2022-12-03T10:04:15.732Z,85.42
2022-12-03T10:06:46.296Z,85.66
2022-12-03T10:09:21.061Z,85.47
2022-12-03T10:11:49.259Z,86.61
2022-12-03T10:14:18.936Z,86.57
2022-12-03T10:16:47.759Z,86.74
2022-12-03T10:19:20.821Z,86.17
2022-12-03T10:21:49.125Z,86.96
2022-12-03T10:24:27.011Z,86.29
2022-12-03T10:26:57.409Z,86.61
2022-12-03T10:29:32.962Z,86.90
2022-12-03T10:32:04.189Z,86.89
2022-12-03T10:34:34.383Z,86.31
2022-12-03T10:37:17.324Z,87.49
2022-12-03T10:40:01.155Z,88.22
2022-12-03T10:42:31.013Z,87.10
2022-12-03T10:45:19.595Z,87.87
2022-12-03T10:48:10.788Z,87.11
2022-12-03T10:50:39.589Z,87.74
2022-12-03T10:53:07.862Z,87.96
2022-12-03T10:55:40.245Z,88.38
2022-12-03T10:58:12.136Z,88.35
2022-12-03T11:00:40.587Z,88.39
2022-12-03T11:03:18.340Z,88.68
2022-12-03T11:05:46.711Z,88.88
2022-12-03T11:08:22.446Z,88.40
2022-12-03T11:11:15.541Z,89.18
2022-12-03T11:13:52.453Z,88.53
2022-12-03T11:17:09.134Z,88.68
2022-12-03T11:19:50.403Z,88.83
2022-12-03T11:22:30.736Z,88.48
2022-12-03T11:25:51.722Z,89.27
2022-12-03T11:28:53.379Z,89.72
2022-12-03T11:31:39.422Z,89.24
2022-12-03T11:34:51.197Z,89.29
2022-12-03T11:37:23.749Z,88.74
2022-12-03T11:40:28.638Z,90.41
2022-12-03T11:42:56.881Z,90.68
2022-12-03T11:45:33.199Z,91.05
2022-12-03T11:48:22.729Z,90.81
2022-12-03T11:50:52.720Z,91.16
2022-12-03T11:53:22.505Z,90.87
2022-12-03T11:56:06.518Z,90.14
2022-12-03T11:58:35.485Z,89.69
2022-12-03T12:01:07.025Z,90.31
2022-12-03T12:03:38.015Z,89.60
2022-12-03T12:06:08.940Z,89.82
2022-12-03T12:08:39.172Z,90.08
2022-12-03T12:11:18.551Z,91.14
2022-12-03T12:13:56.004Z,90.40
2022-12-03T12:16:51.131Z,90.52
2022-12-03T12:19:36.011Z,91.18
2022-12-03T12:22:29.188Z,91.19
2022-12-03T12:24:57.873Z,91.11
2022-12-03T12:27:34.250Z,91.01
2022-12-03T12:30:03.858Z,91.16
2022-12-03T12:32:36.274Z,90.88
2022-12-03T12:35:15.769Z,91.07
2022-12-03T12:37:58.107Z,91.65
2022-12-03T12:40:28.912Z,91.65
2022-12-03T12:42:58.562Z,90.86
2022-12-03T12:45:28.972Z,91.25
2022-12-03T12:48:03.508Z,91.62
2022-12-03T12:50:33.092Z,91.59
2022-12-03T12:53:04.592Z,90.66
2022-12-03T12:55:32.897Z,91.11
2022-12-03T12:58:04.316Z,91.54
2022-12-03T13:00:32.607Z,91.01
2022-12-03T13:03:03.397Z,91.08
2022-12-03T13:05:36.985Z,92.02
2022-12-03T13:08:20.495Z,91.75
2022-12-03T13:10:48.688Z,91.76
2022-12-03T13:13:21.708Z,92.32
2022-12-03T13:15:53.490Z,91.39
2022-12-03T13:18:26.713Z,91.32
2022-12-03T13:20:55.899Z,91.51
2022-12-03T13:23:30.653Z,91.63
2022-12-03T13:26:10.296Z,91.92
2022-12-03T13:28:49.166Z,92.67
2022-12-03T13:31:24.967Z,91.49
2022-12-03T13:33:56.030Z,92.20
2022-12-03T13:36:31.476Z,91.96
2022-12-03T13:39:00.536Z,91.65
2022-12-03T13:41:56.805Z,92.12
2022-12-03T13:44:34.658Z,92.01
2022-12-03T13:47:14.673Z,92.11
2022-12-03T13:49:47.859Z,92.05
2022-12-03T13:52:17.584Z,92.73
2022-12-03T13:54:45.879Z,92.59
2022-12-03T13:57:14.110Z,91.68
2022-12-03T13:59:42.452Z,91.92
2022-12-03T14:02:12.797Z,91.96
2022-12-03T14:04:41.828Z,91.89
2022-12-03T14:07:11.956Z,91.81
2022-12-03T14:09:40.610Z,92.04
2022-12-03T14:12:27.253Z,91.65
2022-12-03T14:14:55.746Z,91.17
2022-12-03T14:17:24.279Z,91.03
2022-12-03T14:19:52.936Z,91.26
2022-12-03T14:22:25.464Z,91.61
2022-12-03T14:24:54.240Z,91.73
2022-12-03T14:27:23.052Z,91.27
2022-12-03T14:29:51.916Z,91.28
2022-12-03T14:32:20.768Z,91.71
2022-12-03T14:34:48.947Z,91.37
2022-12-03T14:37:17.834Z,92.06
2022-12-03T14:39:47.940Z,92.46
2022-12-03T14:42:16.895Z,93.29
2022-12-03T14:44:46.579Z,92.58
2022-12-03T14:47:15.509Z,92.21
2022-12-03T14:49:44.004Z,92.14
2022-12-03T14:52:12.938Z,92.12
2022-12-03T14:54:42.869Z,92.22
2022-12-03T14:57:13.939Z,91.75
2022-12-03T14:59:42.683Z,92.29
2022-12-03T15:02:11.756Z,92.35
2022-12-03T15:04:40.151Z,91.82
2022-12-03T15:07:09.096Z,92.11
2022-12-03T15:09:37.507Z,92.03
2022-12-03T15:12:06.681Z,92.37
2022-12-03T15:14:36.462Z,92.29
2022-12-03T15:17:04.854Z,92.24
2022-12-03T15:19:33.261Z,92.74
2022-12-03T15:22:01.671Z,92.18
2022-12-03T15:24:33.950Z,92.83
2022-12-03T15:27:07.498Z,92.45
2022-12-03T15:29:42.255Z,92.52
2022-12-03T15:32:11.186Z,92.63
2022-12-03T15:34:39.451Z,92.23
2022-12-03T15:37:09.311Z,92.66
2022-12-03T15:39:38.936Z,91.64
2022-12-03T15:42:11.539Z,91.37
2022-12-03T15:44:45.340Z,91.49
2022-12-03T15:47:21.465Z,91.82
2022-12-03T15:49:54.838Z,91.74
2022-12-03T15:52:28.429Z,91.46
2022-12-03T15:55:00.787Z,91.46
2022-12-03T15:57:32.176Z,90.14
2022-12-03T16:00:04.257Z,91.22
2022-12-03T16:02:36.656Z,90.51
2022-12-03T16:05:09.012Z,89.82
2022-12-03T16:07:38.417Z,88.76
2022-12-03T16:10:08.977Z,88.44
2022-12-03T16:12:37.900Z,87.11
2022-12-03T16:15:09.116Z,86.96
2022-12-03T16:17:37.494Z,87.24
2022-12-03T16:20:06.893Z,87.00
2022-12-03T16:22:35.229Z,86.66
2022-12-03T16:25:05.285Z,86.54
2022-12-03T16:27:33.505Z,86.58
2022-12-03T16:30:02.116Z,86.15
2022-12-03T16:32:33.107Z,86.76
2022-12-03T16:35:01.799Z,86.38
2022-12-03T16:37:30.291Z,86.75
2022-12-03T16:39:58.574Z,86.54
2022-12-03T16:42:27.668Z,86.00
2022-12-03T16:45:19.465Z,86.20
2022-12-03T16:47:49.070Z,86.38
2022-12-03T16:50:24.382Z,86.15
2022-12-03T16:52:55.951Z,87.04
2022-12-03T16:55:24.124Z,86.40
2022-12-03T16:57:54.168Z,86.71
2022-12-03T17:00:23.054Z,85.57
2022-12-03T17:02:52.914Z,86.63
2022-12-03T17:05:21.236Z,86.29
2022-12-03T17:07:49.549Z,86.42
2022-12-03T17:10:18.003Z,86.63
2022-12-03T17:13:08.671Z,87.30
2022-12-03T17:15:36.806Z,86.43
2022-12-03T17:18:07.434Z,87.13
2022-12-03T17:20:35.901Z,87.25
2022-12-03T17:23:04.707Z,86.94
2022-12-03T17:25:33.010Z,87.13
2022-12-03T17:28:01.249Z,87.28
2022-12-03T17:30:29.624Z,87.33
2022-12-03T17:32:57.989Z,87.12
2022-12-03T17:35:28.745Z,87.64
2022-12-03T17:37:57.209Z,87.91
2022-12-03T17:40:25.472Z,87.65
2022-12-03T17:42:54.242Z,88.18
2022-12-03T17:45:22.747Z,87.72
2022-12-03T17:47:51.704Z,87.86
2022-12-03T17:50:20.274Z,87.83
2022-12-03T17:52:50.110Z,88.05
2022-12-03T17:55:29.734Z,88.14
2022-12-03T17:58:05.056Z,88.47
2022-12-03T18:00:33.612Z,88.23
2022-12-03T18:03:01.911Z,88.72
2022-12-03T18:05:30.280Z,88.91
2022-12-03T18:08:00.340Z,88.45
2022-12-03T18:10:28.825Z,88.76
2022-12-03T18:13:01.680Z,88.54
2022-12-03T18:15:31.159Z,88.11
2022-12-03T18:18:01.706Z,87.90
2022-12-03T18:20:30.009Z,87.89
2022-12-03T18:23:00.588Z,88.26
2022-12-03T18:25:29.714Z,88.56
2022-12-03T18:27:58.546Z,87.52
2022-12-03T18:30:26.894Z,87.64
2022-12-03T18:32:55.415Z,87.71
2022-12-03T18:35:23.657Z,88.06
2022-12-03T18:37:52.511Z,87.74
2022-12-03T18:40:24.404Z,88.30
2022-12-03T18:42:52.620Z,88.12
2022-12-03T18:45:21.207Z,88.01
2022-12-03T18:47:49.741Z,88.20
2022-12-03T18:50:18.825Z,87.68
2022-12-03T18:52:47.316Z,87.67
2022-12-03T18:55:19.867Z,88.22
2022-12-03T18:57:49.599Z,88.14
2022-12-03T19:00:18.651Z,87.89
2022-12-03T19:03:03.058Z,87.33
2022-12-03T19:05:32.743Z,88.06
2022-12-03T19:08:01.239Z,88.55
2022-12-03T19:10:29.864Z,88.22
2022-12-03T19:12:59.615Z,88.12
2022-12-03T19:15:28.136Z,88.35
2022-12-03T19:17:56.489Z,88.74
2022-12-03T19:20:25.377Z,88.39
2022-12-03T19:22:53.638Z,87.83
2022-12-03T19:25:21.908Z,88.59
2022-12-03T19:27:50.946Z,89.02
2022-12-03T19:30:21.464Z,88.97
2022-12-03T19:32:51.738Z,88.67
2022-12-03T19:35:21.529Z,89.12
2022-12-03T19:37:50.338Z,89.15
2022-12-03T19:40:19.043Z,88.81
2022-12-03T19:42:47.410Z,88.95
2022-12-03T19:45:15.726Z,89.22
2022-12-03T19:47:45.797Z,89.07
2022-12-03T19:50:22.328Z,89.13
2022-12-03T19:52:52.008Z,88.72
2022-12-03T19:55:20.785Z,89.26
2022-12-03T19:57:49.080Z,89.22
2022-12-03T20:00:18.269Z,89.69
2022-12-03T20:02:49.773Z,89.13
2022-12-03T20:05:18.163Z,89.64
2022-12-03T20:07:46.435Z,89.30
2022-12-03T20:10:14.794Z,89.22
2022-12-03T20:12:43.016Z,89.38
2022-12-03T20:15:12.585Z,89.57
2022-12-03T20:17:41.014Z,88.54
2022-12-03T20:20:11.816Z,88.76
2022-12-03T20:22:40.063Z,88.64
2022-12-03T20:25:09.209Z,88.93
2022-12-03T20:27:37.885Z,87.95
2022-12-03T20:30:07.419Z,88.00
2022-12-03T20:32:40.539Z,88.04
2022-12-03T20:35:13.326Z,88.57
2022-12-03T20:37:41.621Z,88.72
2022-12-03T20:40:10.766Z,88.60
2022-12-03T20:42:38.963Z,88.20
2022-12-03T20:45:08.517Z,88.33
2022-12-03T20:47:36.802Z,87.65
2022-12-03T20:50:05.289Z,87.98
2022-12-03T20:52:35.585Z,87.67
2022-12-03T20:55:03.745Z,87.89
2022-12-03T20:57:32.694Z,87.54
2022-12-03T21:00:01.054Z,88.08
2022-12-03T21:02:29.360Z,88.23
2022-12-03T21:04:57.648Z,88.35
2022-12-03T21:07:25.958Z,88.25
2022-12-03T21:09:55.856Z,88.35
2022-12-03T21:12:24.283Z,88.25
2022-12-03T21:14:52.603Z,88.29
2022-12-03T21:17:20.989Z,88.64
2022-12-03T21:19:49.374Z,88.34
2022-12-03T21:22:17.708Z,88.09
2022-12-03T21:24:46.488Z,88.42
2022-12-03T21:27:21.351Z,88.91
2022-12-03T21:29:51.021Z,88.40
2022-12-03T21:32:19.334Z,88.54
2022-12-03T21:34:47.543Z,88.27
2022-12-03T21:37:15.962Z,88.52
2022-12-03T21:39:44.166Z,88.16
2022-12-03T21:42:18.910Z,88.18
2022-12-03T21:45:02.761Z,88.56
2022-12-03T21:47:37.314Z,88.31
2022-12-03T21:50:08.051Z,88.62
2022-12-03T21:52:36.658Z,88.52
2022-12-03T21:55:05.116Z,88.45
2022-12-03T21:57:33.720Z,88.55
2022-12-03T22:00:04.492Z,89.00
2022-12-03T22:02:33.891Z,88.29
2022-12-03T22:05:02.106Z,88.39
2022-12-03T22:07:34.165Z,88.68
2022-12-03T22:10:02.563Z,88.81
2022-12-03T22:12:32.357Z,88.83
2022-12-03T22:15:00.714Z,88.63
2022-12-03T22:17:30.311Z,88.13
2022-12-03T22:19:58.565Z,88.63
2022-12-03T22:22:26.944Z,88.81
2022-12-03T22:24:55.085Z,88.55
2022-12-03T22:27:23.284Z,88.57
2022-12-03T22:29:51.711Z,88.48
2022-12-03T22:32:20.631Z,88.78
2022-12-03T22:34:50.289Z,88.92
2022-12-03T22:37:18.726Z,88.98
2022-12-03T22:39:47.407Z,88.62
2022-12-03T22:42:15.705Z,88.70
2022-12-03T22:44:44.065Z,88.73
2022-12-03T22:47:12.332Z,88.30
2022-12-03T22:49:40.760Z,88.73
2022-12-03T22:52:10.568Z,88.55
2022-12-03T22:54:38.760Z,87.78
2022-12-03T22:57:07.056Z,88.83
2022-12-03T22:59:37.291Z,88.28
2022-12-03T23:02:05.600Z,88.67
2022-12-03T23:04:34.380Z,89.00
2022-12-03T23:07:02.696Z,88.69
2022-12-03T23:09:32.364Z,88.28
2022-12-03T23:12:00.598Z,88.34
2022-12-03T23:14:28.984Z,88.59
2022-12-03T23:16:57.231Z,89.14
2022-12-03T23:19:25.370Z,88.55
2022-12-03T23:21:54.061Z,88.35
2022-12-03T23:24:22.301Z,88.26
2022-12-03T23:26:51.853Z,88.00
2022-12-03T23:29:20.164Z,88.04
2022-12-03T23:31:48.537Z,88.13
2022-12-03T23:34:16.984Z,87.97
2022-12-03T23:36:45.977Z,87.69
2022-12-03T23:39:14.242Z,87.88
2022-12-03T23:41:42.385Z,88.36
2022-12-03T23:44:12.217Z,88.10
2022-12-03T23:46:41.839Z,88.48
2022-12-03T23:49:10.072Z,88.05
2022-12-03T23:51:38.332Z,88.22
2022-12-03T23:54:06.661Z,88.54
2022-12-03T23:56:34.868Z,88.20
2022-12-03T23:59:03.260Z,87.96
